Terminal Aerodrome Forecast
Issued by NWS

Home | Current Version | Previous Version | Graphics & Text | Print | Product List | Glossary On
Versions: 1 2 3 4 5 6 7 8 9 10 11 12 13 14 15 16 17 18 19 20 21 22 23 24
000
FTUS41 KCLE 211722
TAFFDY
TAF
KFDY 211722Z 2118/2218 18010KT P6SM SCT035 BKN250
     FM212100 16008KT P6SM BKN250
     FM220400 16003KT P6SM SCT012 BKN100
     FM220800 14003KT 4SM BR SCT006 OVC012
      TEMPO 2209/2213 3/4SM BR BKN006
     FM221600 09005KT 6SM HZ OVC012=

USA.gov is the U.S. government's official web portal to all federal, state and local government web resources and services.